createdAt,value
2023-01-10T00:00:06.137Z,0.68
2023-01-10T00:10:08.236Z,0.52
2023-01-10T00:20:10.497Z,0.63
2023-01-10T00:30:15.468Z,0.70
2023-01-10T00:40:17.011Z,1.20
2023-01-10T00:50:18.805Z,0.70
2023-01-10T01:00:20.363Z,0.60
2023-01-10T01:10:27.852Z,0.77
2023-01-10T01:20:29.874Z,1.35
2023-01-10T01:30:31.387Z,0.80
2023-01-10T01:40:32.953Z,1.00
2023-01-10T01:50:53.233Z,0.90
2023-01-10T02:00:54.784Z,0.90
2023-01-10T02:11:08.444Z,0.75
2023-01-10T02:21:22.716Z,0.90
2023-01-10T02:31:30.251Z,1.08
2023-01-10T02:41:46.644Z,1.05
2023-01-10T02:51:48.144Z,1.15
2023-01-10T03:02:00.946Z,1.27
2023-01-10T03:12:23.756Z,0.88
2023-01-10T03:22:26.375Z,1.25
2023-01-10T03:32:30.622Z,1.20
2023-01-10T03:43:09.612Z,1.10
2023-01-10T03:53:13.025Z,1.40
2023-01-10T04:03:14.701Z,1.00
2023-01-10T04:13:16.199Z,1.30
2023-01-10T04:23:17.667Z,1.15
2023-01-10T04:33:19.201Z,1.20
2023-01-10T04:43:20.780Z,1.40
2023-01-10T04:53:22.421Z,0.90
2023-01-10T05:03:23.904Z,1.27
2023-01-10T05:13:26.361Z,1.60
2023-01-10T05:23:28.743Z,1.00
2023-01-10T05:33:30.261Z,0.98
2023-01-10T05:43:31.768Z,1.10
2023-01-10T05:53:33.440Z,1.30
2023-01-10T06:03:35.008Z,1.17
2023-01-10T06:13:36.469Z,1.00
2023-01-10T06:23:39.322Z,1.88
2023-01-10T06:33:43.891Z,1.17
2023-01-10T06:43:46.817Z,1.40
2023-01-10T06:53:48.305Z,1.10
2023-01-10T07:03:49.923Z,1.42
2023-01-10T07:13:53.357Z,1.20
2023-01-10T07:23:54.879Z,1.20
2023-01-10T07:33:56.345Z,1.08
2023-01-10T07:43:57.811Z,0.80
2023-01-10T07:53:59.384Z,1.02
2023-01-10T08:04:03.744Z,1.27
2023-01-10T08:14:05.244Z,1.17
2023-01-10T08:24:07.040Z,1.10
2023-01-10T08:34:08.577Z,1.42
2023-01-10T08:44:12.367Z,1.13
2023-01-10T08:54:13.832Z,1.08
2023-01-10T09:04:15.399Z,1.63
2023-01-10T09:14:16.894Z,1.15
2023-01-10T09:24:18.400Z,1.50
2023-01-10T09:34:19.934Z,1.35
2023-01-10T09:44:36.834Z,1.42
2023-01-10T09:54:43.436Z,2.05
2023-01-10T10:04:49.802Z,1.42
2023-01-10T10:15:32.555Z,1.85
2023-01-10T10:25:38.524Z,1.60
2023-01-10T10:35:43.493Z,1.45
2023-01-10T10:45:48.403Z,1.17
2023-01-10T10:55:50.984Z,2.25
2023-01-10T11:05:52.952Z,1.40
2023-01-10T11:15:56.163Z,1.55
2023-01-10T11:25:58.504Z,1.80
2023-01-10T11:36:02.526Z,1.80
2023-01-10T11:46:06.574Z,1.80
2023-01-10T11:56:11.518Z,1.63
2023-01-10T12:06:17.641Z,2.33
2023-01-10T12:16:30.986Z,1.92
2023-01-10T12:26:33.751Z,1.88
2023-01-10T12:36:49.773Z,2.13
2023-01-10T12:47:13.314Z,2.47
2023-01-10T12:57:25.090Z,2.03
2023-01-10T13:07:31.972Z,1.52
2023-01-10T13:17:33.509Z,1.65
2023-01-10T13:27:35.598Z,1.90
2023-01-10T13:37:38.682Z,1.92
2023-01-10T13:47:40.254Z,1.77
2023-01-10T13:58:01.202Z,1.80
2023-01-10T14:08:02.797Z,2.10
2023-01-10T14:18:18.965Z,1.95
2023-01-10T14:28:26.872Z,2.08
2023-01-10T14:38:30.378Z,2.10
2023-01-10T14:48:40.017Z,2.10
2023-01-10T14:58:41.504Z,1.52
2023-01-10T15:08:43.040Z,1.92
2023-01-10T15:18:45.706Z,1.48
2023-01-10T15:29:04.904Z,1.73
2023-01-10T15:39:06.436Z,1.85
2023-01-10T15:49:22.162Z,1.70
2023-01-10T15:59:27.637Z,1.60
2023-01-10T16:09:29.498Z,1.95
2023-01-10T16:19:31.017Z,1.63
2023-01-10T16:29:32.973Z,1.85
2023-01-10T16:39:34.937Z,2.22
2023-01-10T16:49:36.483Z,2.15
2023-01-10T16:59:37.983Z,1.75
2023-01-10T17:09:39.641Z,1.48
2023-01-10T17:19:42.717Z,1.80
2023-01-10T17:29:44.254Z,1.77
2023-01-10T17:39:45.739Z,1.50
2023-01-10T17:49:47.290Z,1.40
2023-01-10T17:59:49.011Z,1.17
2023-01-10T18:09:50.529Z,1.75
2023-01-10T18:19:52.065Z,1.27
2023-01-10T18:29:53.852Z,1.50
2023-01-10T18:39:55.356Z,1.23
2023-01-10T18:49:56.859Z,1.20
2023-01-10T18:59:58.577Z,1.38
2023-01-10T19:10:00.063Z,1.33
2023-01-10T19:20:01.611Z,1.25
2023-01-10T19:30:03.699Z,1.10
2023-01-10T19:40:07.339Z,1.10
2023-01-10T19:50:09.477Z,1.20
2023-01-10T20:00:11.455Z,1.00
2023-01-10T20:10:14.120Z,0.90
2023-01-10T20:20:16.616Z,1.10
2023-01-10T20:30:18.670Z,1.17
2023-01-10T20:40:22.749Z,0.60
2023-01-10T20:50:24.269Z,1.77
2023-01-10T21:00:27.861Z,0.88
2023-01-10T21:10:29.790Z,0.90
2023-01-10T21:20:31.679Z,1.00
2023-01-10T21:30:33.160Z,0.60
2023-01-10T21:40:35.165Z,0.70
2023-01-10T21:50:36.749Z,0.80
2023-01-10T22:00:38.352Z,0.80
2023-01-10T22:10:41.161Z,0.57
2023-01-10T22:20:45.626Z,0.70
2023-01-10T22:30:47.113Z,0.70
2023-01-10T22:40:48.631Z,0.60
2023-01-10T22:50:50.714Z,0.40
2023-01-10T23:00:52.221Z,0.65
2023-01-10T23:10:54.223Z,0.50
2023-01-10T23:20:56.358Z,0.50
2023-01-10T23:30:57.826Z,0.45
2023-01-10T23:40:59.608Z,0.32
2023-01-10T23:51:01.109Z,0.35
